Time;durP1;ratioP1;P1;durP2;ratioP2;P2;SDS_P1;SDS_P2;PMS_P1;PMS_P2;Temp;Humidity;BMP_temperature;BMP_pressure;BME280_temperature;BME280_humidity;BME280_pressure;Samples;Min_cycle;Max_cycle;Signal;HPM_P1;HPM_P2
2022/11/27 00:01:27;;;;;;;10.43;3.30;;;;;;;7.80;75.26;102263.66;3616349;39;20050;-63
2022/11/27 00:03:54;;;;;;;12.45;3.80;;;;;;;7.76;75.18;102262.88;3615475;39;20135;-64
2022/11/27 00:06:24;;;;;;;11.70;3.92;;;;;;;7.73;75.14;102262.94;3613935;39;20124;-64
2022/11/27 00:08:50;;;;;;;11.10;3.95;;;;;;;7.70;74.81;102272.84;3614183;39;20054;-64
2022/11/27 00:11:20;;;;;;;10.95;3.92;;;;;;;7.64;75.08;102269.44;3614473;39;20092;-64
2022/11/27 00:13:47;;;;;;;14.00;4.53;;;;;;;7.62;75.92;102257.88;3618128;39;20087;-64
2022/11/27 00:16:15;;;;;;;15.48;4.55;;;;;;;7.57;75.98;102262.47;3612393;39;20132;-64
2022/11/27 00:18:42;;;;;;;14.80;4.32;;;;;;;7.52;75.54;102255.50;3614264;39;20103;-64
2022/11/27 00:21:21;;;;;;;10.10;3.72;;;;;;;7.47;76.11;102258.28;3613102;39;20670;-63
2022/11/27 00:23:47;;;;;;;10.35;4.28;;;;;;;7.04;75.95;102187.19;3615572;39;20127;-64
2022/11/27 00:26:13;;;;;;;12.98;4.50;;;;;;;7.02;76.68;102188.13;3613179;39;20067;-64
2022/11/27 00:28:39;;;;;;;14.27;4.72;;;;;;;7.35;76.51;102239.88;3613707;39;20349;-64
2022/11/27 00:31:15;;;;;;;13.32;4.30;;;;;;;7.33;77.16;102236.38;3616019;39;20054;-64
2022/11/27 00:33:41;;;;;;;11.40;4.15;;;;;;;7.32;77.07;102230.13;3617615;39;20063;-64
2022/11/27 00:36:08;;;;;;;15.98;4.45;;;;;;;7.31;76.80;102232.84;3618334;39;20405;-64
2022/11/27 00:38:37;;;;;;;12.55;4.28;;;;;;;7.30;76.84;102231.09;3613632;39;20046;-63
2022/11/27 00:41:15;;;;;;;12.00;4.53;;;;;;;7.29;76.98;102223.97;3613349;39;20050;-64
2022/11/27 00:43:42;;;;;;;12.77;4.32;;;;;;;7.29;76.53;102224.84;3616725;39;20052;-64
2022/11/27 00:46:08;;;;;;;12.98;5.05;;;;;;;7.29;76.98;102230.19;3615386;39;20052;-64
2022/11/27 00:48:34;;;;;;;11.48;4.07;;;;;;;7.26;76.68;102226.72;3614340;39;20047;-63
2022/11/27 00:51:04;;;;;;;17.02;5.30;;;;;;;7.26;76.82;102218.69;3616407;39;20059;-64
2022/11/27 00:53:31;;;;;;;9.38;4.03;;;;;;;7.25;77.11;102222.31;3615598;39;20051;-64
2022/11/27 00:55:57;;;;;;;13.20;4.80;;;;;;;7.22;77.29;102213.44;3617033;39;20141;-64
2022/11/27 00:58:25;;;;;;;14.13;4.40;;;;;;;7.22;76.71;102213.44;3613306;39;20410;-63
2022/11/27 01:01:04;;;;;;;11.52;4.18;;;;;;;7.24;77.08;102209.88;3614403;39;20057;-63
2022/11/27 01:03:32;;;;;;;12.38;5.15;;;;;;;7.22;77.32;102202.72;3618695;39;20452;-64
2022/11/27 01:06:06;;;;;;;14.75;4.20;;;;;;;7.10;77.27;102183.44;3615254;39;20082;-64
2022/11/27 01:08:33;;;;;;;11.52;4.05;;;;;;;7.18;76.66;102198.41;3617859;39;20357;-64
2022/11/27 01:10:59;;;;;;;13.35;4.63;;;;;;;7.18;76.63;102194.84;3613298;39;20374;-64
2022/11/27 01:13:30;;;;;;;10.35;4.50;;;;;;;7.09;76.99;102177.22;3612699;39;20127;-64
2022/11/27 01:16:12;;;;;;;11.73;4.22;;;;;;;7.16;77.30;102181.50;3603406;39;20124;-64
2022/11/27 01:18:41;;;;;;;13.23;4.25;;;;;;;7.13;77.16;102178.91;3613677;39;20443;-64
2022/11/27 01:21:09;;;;;;;18.50;5.20;;;;;;;7.12;77.01;102179.81;3613407;39;20055;-63
2022/11/27 01:23:36;;;;;;;13.77;4.53;;;;;;;7.00;77.46;102164.09;3618392;39;20385;-65
2022/11/27 01:26:05;;;;;;;13.25;4.53;;;;;;;7.09;77.04;102203.97;3612906;39;20055;-64
2022/11/27 01:28:32;;;;;;;14.80;3.80;;;;;;;7.10;77.21;102192.34;3613588;39;20329;-64
2022/11/27 01:31:03;;;;;;;12.50;4.38;;;;;;;6.94;77.08;102167.78;3617131;39;20051;-63
2022/11/27 01:33:29;;;;;;;13.52;4.15;;;;;;;7.09;77.35;102195.06;3614657;39;20381;-63
2022/11/27 01:36:02;;;;;;;10.45;4.30;;;;;;;7.07;77.15;102181.75;3618475;39;20118;-63
2022/11/27 01:38:30;;;;;;;9.23;4.30;;;;;;;6.99;77.23;102162.34;3614242;39;20066;-63
2022/11/27 01:40:59;;;;;;;14.45;4.57;;;;;;;7.04;77.12;102159.53;3613765;39;20086;-63
2022/11/27 01:43:57;;;;;;;12.95;4.80;;;;;;;7.01;77.18;102159.63;3612916;39;20400;-63
2022/11/27 01:47:09;;;;;;;16.42;4.93;;;;;;;6.84;77.37;102130.66;3614717;39;20038;-65
2022/11/27 01:49:49;;;;;;;15.27;4.88;;;;;;;6.98;77.44;102152.59;3570153;40;20089;-65
2022/11/27 01:52:23;;;;;;;13.05;5.15;;;;;;;6.77;77.33;102129.94;3570208;40;20049;-64
2022/11/27 01:55:19;;;;;;;10.90;4.97;;;;;;;6.97;77.42;102145.47;3605845;39;20186;-63
2022/11/27 01:57:55;;;;;;;18.50;5.35;;;;;;;6.97;76.96;102129.41;3613951;39;20061;-65
2022/11/27 02:00:22;;;;;;;13.02;4.75;;;;;;;6.96;76.86;102116.97;3612790;39;20057;-63
2022/11/27 02:02:48;;;;;;;15.18;4.85;;;;;;;6.93;77.00;102115.25;3615317;39;20124;-63
2022/11/27 02:05:20;;;;;;;15.98;5.10;;;;;;;6.85;76.57;102103.00;3617377;39;20062;-64
2022/11/27 02:07:47;;;;;;;13.38;5.35;;;;;;;6.87;77.00;102107.41;3613425;39;20054;-63
2022/11/27 02:10:14;;;;;;;13.40;5.50;;;;;;;6.84;77.01;102102.13;3613010;39;20143;-63
2022/11/27 02:13:00;;;;;;;19.73;5.68;;;;;;;6.81;76.79;102102.22;3613467;39;20389;-64
2022/11/27 02:15:53;;;;;;;17.15;5.65;;;;;;;6.77;77.09;102089.84;3613941;39;20312;-63
2022/11/27 02:18:42;;;;;;;15.95;5.82;;;;;;;6.73;77.16;102083.72;3598489;39;20061;-63
2022/11/27 02:21:28;;;;;;;18.92;5.97;;;;;;;6.71;76.59;102090.88;3614275;39;20077;-63
2022/11/27 02:24:24;;;;;;;22.38;6.03;;;;;;;6.66;77.28;102090.13;3615071;39;20058;-63
2022/11/27 02:27:36;;;;;;;15.68;5.32;;;;;;;6.61;76.70;102075.13;3614402;39;20301;-63
2022/11/27 02:30:05;;;;;;;10.80;5.00;;;;;;;6.54;77.04;102060.19;3615843;39;20098;-63
2022/11/27 02:32:59;;;;;;;12.30;4.88;;;;;;;6.60;76.64;102068.91;3617528;39;20052;-63
2022/11/27 02:35:36;;;;;;;13.05;5.03;;;;;;;6.56;77.02;102069.88;3621111;39;20338;-63
2022/11/27 02:38:43;;;;;;;12.13;5.50;;;;;;;6.60;76.69;102076.94;3615310;39;20094;-63
2022/11/27 02:41:19;;;;;;;14.43;5.55;;;;;;;6.58;76.76;102062.72;3617057;39;20160;-63
2022/11/27 02:43:50;;;;;;;17.25;5.85;;;;;;;6.60;76.46;102060.91;3614711;39;20119;-63
2022/11/27 02:46:19;;;;;;;15.07;6.13;;;;;;;6.63;76.47;102055.47;3618509;39;20059;-66
2022/11/27 02:48:51;;;;;;;12.82;5.80;;;;;;;6.58;76.54;102068.06;3614985;39;20127;-63
2022/11/27 02:51:28;;;;;;;13.65;5.05;;;;;;;6.65;76.69;102061.63;3608010;39;20326;-63
2022/11/27 02:54:02;;;;;;;11.90;5.53;;;;;;;6.66;75.92;102074.09;3617326;39;20050;-62
2022/11/27 02:56:31;;;;;;;14.55;5.75;;;;;;;6.69;76.35;102075.78;3613961;39;20404;-62
2022/11/27 02:59:05;;;;;;;11.60;5.72;;;;;;;6.69;75.84;102079.38;3615296;39;20085;-63
2022/11/27 03:01:41;;;;;;;10.45;4.72;;;;;;;6.48;75.55;102037.16;3616609;39;20055;-63
2022/11/27 03:04:16;;;;;;;15.30;5.82;;;;;;;6.72;75.79;102083.72;3618866;39;20055;-63
2022/11/27 03:06:51;;;;;;;12.35;5.32;;;;;;;6.71;76.04;102076.66;3615219;39;20055;-63
2022/11/27 03:09:26;;;;;;;11.73;5.32;;;;;;;6.75;75.50;102078.31;3617928;39;20050;-63
2022/11/27 03:11:54;;;;;;;10.18;4.78;;;;;;;6.35;75.19;102004.56;3617807;39;20132;-64
2022/11/27 03:14:23;;;;;;;10.48;4.93;;;;;;;6.78;75.15;102072.03;3616311;39;20053;-63
2022/11/27 03:17:06;;;;;;;13.77;5.40;;;;;;;6.82;74.72;102073.69;3617197;39;20139;-63
2022/11/27 03:20:25;;;;;;;12.77;5.20;;;;;;;6.82;74.51;102068.34;3616095;39;20047;-63
2022/11/27 03:22:54;;;;;;;8.55;4.80;;;;;;;6.83;74.62;102062.97;3597803;39;20064;-63
2022/11/27 03:25:22;;;;;;;10.98;4.93;;;;;;;6.86;74.90;102054.00;3615158;39;20465;-62
2022/11/27 03:28:03;;;;;;;10.93;4.47;;;;;;;6.90;74.32;102058.34;3615397;39;20439;-63
2022/11/27 03:30:29;;;;;;;11.63;4.35;;;;;;;6.92;74.71;102065.41;3615972;39;20046;-63
2022/11/27 03:32:55;;;;;;;9.13;4.40;;;;;;;6.90;73.98;102055.66;3614132;39;20091;-63
2022/11/27 03:35:25;;;;;;;10.25;4.30;;;;;;;6.95;73.72;102059.09;3619866;39;20069;-63
2022/11/27 03:37:52;;;;;;;12.32;4.80;;;;;;;6.96;73.42;102055.50;3617841;39;20300;-63
2022/11/27 03:40:20;;;;;;;12.40;4.25;;;;;;;6.89;72.85;102032.53;3616510;39;20412;-63
2022/11/27 03:43:10;;;;;;;9.63;4.28;;;;;;;6.86;73.17;102022.81;3614222;39;20074;-63
2022/11/27 03:46:10;;;;;;;12.48;4.05;;;;;;;7.00;72.32;102025.09;3614045;39;20070;-63
2022/11/27 03:49:13;;;;;;;6.28;3.72;;;;;;;6.99;72.38;102023.34;3617937;39;20383;-63
2022/11/27 03:52:02;;;;;;;7.18;3.55;;;;;;;7.00;72.43;102030.44;3617413;39;20061;-63
2022/11/27 03:55:14;;;;;;;7.57;3.97;;;;;;;7.01;72.76;102032.22;3615294;39;20318;-63
2022/11/27 03:58:00;;;;;;;7.15;3.95;;;;;;;6.98;72.08;102021.59;3619668;39;20058;-63
2022/11/27 04:00:35;;;;;;;9.35;3.55;;;;;;;7.04;72.16;102029.44;3617003;39;20038;-64
2022/11/27 04:03:03;;;;;;;14.02;4.60;;;;;;;7.06;72.21;102032.06;3614123;39;20057;-63
2022/11/27 04:05:29;;;;;;;8.75;4.22;;;;;;;7.06;72.61;102027.59;3616401;39;20399;-63
2022/11/27 04:07:54;;;;;;;8.93;4.03;;;;;;;7.09;72.04;102029.31;3614376;39;20054;-63
2022/11/27 04:10:20;;;;;;;11.38;3.85;;;;;;;7.11;71.97;102039.03;3620399;39;20292;-63
2022/11/27 04:12:46;;;;;;;8.68;4.38;;;;;;;7.13;71.67;102050.56;3617584;39;20078;-63
2022/11/27 04:15:12;;;;;;;7.57;3.80;;;;;;;7.15;71.83;102046.06;3615035;39;20062;-63
2022/11/27 04:17:38;;;;;;;12.10;4.20;;;;;;;7.16;71.63;102050.47;3615663;39;20501;-63
2022/11/27 04:20:06;;;;;;;10.40;3.95;;;;;;;7.13;71.16;102047.88;3613330;39;20058;-63
2022/11/27 04:22:31;;;;;;;6.93;3.90;;;;;;;7.17;72.00;102051.38;3615372;39;20381;-63
2022/11/27 04:24:57;;;;;;;7.47;3.75;;;;;;;7.19;71.10;102050.38;3617677;39;20059;-63
2022/11/27 04:27:22;;;;;;;9.80;4.72;;;;;;;7.21;71.86;102056.56;3616318;39;20436;-64
2022/11/27 04:29:48;;;;;;;12.38;4.20;;;;;;;7.20;71.57;102037.91;3614331;39;20058;-63
2022/11/27 04:32:14;;;;;;;14.50;4.35;;;;;;;7.22;71.39;102034.25;3618462;39;20388;-63
2022/11/27 04:34:40;;;;;;;7.75;3.80;;;;;;;7.24;71.14;102034.22;3611593;39;20077;-63
2022/11/27 04:37:05;;;;;;;5.95;3.47;;;;;;;7.11;70.76;102014.97;3613760;39;20050;-63
2022/11/27 04:39:31;;;;;;;7.03;3.83;;;;;;;7.20;71.54;102032.56;3614967;39;20054;-63
2022/11/27 04:41:56;;;;;;;11.32;4.65;;;;;;;7.24;71.70;102038.69;3615370;39;20058;-63
2022/11/27 04:44:22;;;;;;;7.40;3.85;;;;;;;7.26;70.97;102036.84;3613721;39;20050;-63
2022/11/27 04:46:48;;;;;;;10.50;4.32;;;;;;;7.24;71.08;102031.56;3614215;39;20389;-63
2022/11/27 04:49:14;;;;;;;12.90;4.47;;;;;;;7.25;70.90;102027.94;3614191;39;20050;-63
2022/11/27 04:51:40;;;;;;;12.80;4.80;;;;;;;7.26;71.49;102023.47;3613661;39;20161;-64
2022/11/27 04:54:06;;;;;;;7.57;3.47;;;;;;;7.24;71.79;102025.34;3617395;39;20053;-63
2022/11/27 04:56:31;;;;;;;9.48;4.38;;;;;;;7.24;71.10;102023.53;3619657;39;20050;-63
2022/11/27 04:58:57;;;;;;;10.80;3.83;;;;;;;7.26;71.71;102015.44;3613660;39;20624;-63
2022/11/27 05:01:22;;;;;;;10.10;4.90;;;;;;;7.25;71.31;102011.03;3603572;39;20053;-63
2022/11/27 05:03:48;;;;;;;8.98;3.83;;;;;;;7.26;70.81;102012.78;3618580;39;20058;-64
2022/11/27 05:06:14;;;;;;;9.55;3.90;;;;;;;7.22;71.06;102007.50;3619170;39;20071;-64
2022/11/27 05:08:40;;;;;;;9.52;4.38;;;;;;;7.22;71.48;102004.84;3617054;39;20392;-64
2022/11/27 05:11:11;;;;;;;12.02;4.38;;;;;;;7.23;71.45;101997.72;3616634;39;20447;-63
2022/11/27 05:13:38;;;;;;;12.10;4.35;;;;;;;7.15;71.26;101973.84;3618313;39;20067;-64
2022/11/27 05:16:05;;;;;;;8.15;3.50;;;;;;;7.25;71.84;101981.59;3619987;39;20124;-64
2022/11/27 05:18:31;;;;;;;7.88;3.72;;;;;;;7.22;71.79;101983.44;3615637;39;20527;-63
2022/11/27 05:21:05;;;;;;;8.52;3.80;;;;;;;7.25;71.78;101982.47;3616173;39;20061;-63
2022/11/27 05:23:32;;;;;;;11.10;3.92;;;;;;;7.25;71.22;101978.94;3619022;39;20058;-63
2022/11/27 05:25:58;;;;;;;8.80;3.63;;;;;;;7.06;71.24;101941.16;3620528;39;20052;-64
2022/11/27 05:28:25;;;;;;;9.65;3.83;;;;;;;7.18;71.31;101965.75;3617837;39;20051;-63
2022/11/27 05:30:51;;;;;;;10.40;3.88;;;;;;;7.27;71.03;101979.78;3616295;39;20050;-63
2022/11/27 05:33:18;;;;;;;9.25;3.95;;;;;;;7.30;71.33;101977.00;3617724;39;20061;-63
2022/11/27 05:35:44;;;;;;;11.30;3.63;;;;;;;7.31;70.81;101976.09;3620033;39;20371;-64
2022/11/27 05:38:11;;;;;;;8.18;3.25;;;;;;;7.30;71.41;101961.84;3614318;39;20071;-63
2022/11/27 05:40:38;;;;;;;13.07;4.13;;;;;;;7.37;71.00;101965.19;3614334;39;20442;-64
2022/11/27 05:43:03;;;;;;;5.95;3.65;;;;;;;7.36;70.59;101960.78;3617760;39;20043;-64
2022/11/27 05:45:29;;;;;;;6.38;3.13;;;;;;;7.37;70.93;101970.56;3615451;39;20094;-63
2022/11/27 05:47:55;;;;;;;6.22;3.47;;;;;;;7.35;71.35;101961.69;3616601;39;20087;-63
2022/11/27 05:50:20;;;;;;;8.13;3.60;;;;;;;7.34;70.92;101951.91;3617080;39;20055;-63
2022/11/27 05:52:46;;;;;;;7.30;3.65;;;;;;;7.24;71.33;101934.41;3615866;39;20053;-63
2022/11/27 05:55:11;;;;;;;8.75;3.78;;;;;;;7.32;71.50;101940.38;3620305;39;20035;-63
2022/11/27 05:57:38;;;;;;;10.32;3.67;;;;;;;7.07;70.98;101887.66;3612979;39;20066;-63
2022/11/27 06:00:06;;;;;;;9.27;3.90;;;;;;;7.27;70.93;101918.25;3616500;39;20119;-63
2022/11/27 06:02:32;;;;;;;7.53;3.63;;;;;;;7.35;70.95;101937.63;3614689;39;20050;-63
2022/11/27 06:04:57;;;;;;;7.18;3.42;;;;;;;7.35;70.79;101929.59;3617958;39;20084;-63
2022/11/27 06:07:23;;;;;;;6.97;3.40;;;;;;;7.36;70.95;101936.72;3613676;39;20055;-63
2022/11/27 06:09:49;;;;;;;6.90;3.55;;;;;;;7.38;70.76;101934.84;3612707;39;20054;-63
2022/11/27 06:12:14;;;;;;;6.40;3.20;;;;;;;7.41;70.62;101932.94;3616355;39;20054;-64
2022/11/27 06:14:40;;;;;;;7.22;3.30;;;;;;;7.40;70.49;101925.00;3616727;39;20344;-64
2022/11/27 06:17:06;;;;;;;6.75;3.05;;;;;;;7.45;71.07;101936.41;3613620;39;20067;-63
2022/11/27 06:19:31;;;;;;;8.00;3.28;;;;;;;7.46;70.83;101921.25;3615248;39;20050;-64
2022/11/27 06:21:57;;;;;;;7.45;3.63;;;;;;;7.26;71.23;101890.63;3614119;39;20050;-64
2022/11/27 06:24:22;;;;;;;8.50;3.83;;;;;;;7.45;70.94;101933.72;3613952;39;20043;-63
2022/11/27 06:26:48;;;;;;;7.90;2.90;;;;;;;7.48;71.24;101927.41;3604805;39;20175;-64
2022/11/27 06:29:14;;;;;;;8.27;3.05;;;;;;;7.46;70.48;101921.25;3616841;39;20054;-63
2022/11/27 06:31:40;;;;;;;10.85;3.83;;;;;;;7.47;71.16;101923.00;3613880;39;20054;-63
2022/11/27 06:34:06;;;;;;;6.28;3.38;;;;;;;7.48;70.88;101930.94;3618983;39;20047;-65
2022/11/27 06:36:36;;;;;;;12.07;4.70;;;;;;;7.47;70.66;101923.00;3615457;39;20057;-64
2022/11/27 06:39:05;;;;;;;7.32;3.50;;;;;;;7.44;71.24;101918.59;3616140;39;20396;-64
2022/11/27 06:41:32;;;;;;;6.70;3.63;;;;;;;7.43;71.78;101927.56;3616148;39;20054;-63
2022/11/27 06:44:00;;;;;;;10.13;3.60;;;;;;;7.45;72.36;101936.41;3615845;39;20316;-66
2022/11/27 06:46:28;;;;;;;9.27;3.75;;;;;;;7.44;72.36;101930.19;3616168;39;20043;-64
2022/11/27 06:48:56;;;;;;;6.75;3.67;;;;;;;7.45;72.33;101933.72;3617799;39;20437;-65
2022/11/27 06:51:26;;;;;;;6.50;3.15;;;;;;;7.42;72.74;101917.75;3615628;39;20055;-64
2022/11/27 06:53:53;;;;;;;6.70;3.50;;;;;;;7.46;73.26;101927.47;3616527;39;20111;-66
2022/11/27 06:56:25;;;;;;;7.15;3.13;;;;;;;7.47;73.08;101918.50;3617257;39;20115;-64
2022/11/27 06:59:00;;;;;;;15.85;9.20;;;;;;;7.46;73.57;101914.09;3616440;39;20062;-65
2022/11/27 07:01:29;;;;;;;10.43;5.13;;;;;;;7.33;73.74;101894.88;3615262;39;20098;-66
2022/11/27 07:03:56;;;;;;;7.25;3.50;;;;;;;7.41;74.62;101910.69;3613801;39;20278;-65
2022/11/27 07:06:25;;;;;;;7.18;3.60;;;;;;;7.40;74.79;101903.59;3615431;39;20135;-65
2022/11/27 07:08:53;;;;;;;9.98;3.67;;;;;;;7.42;74.52;101904.41;3615694;39;20066;-65
2022/11/27 07:11:23;;;;;;;6.38;3.40;;;;;;;7.39;74.61;101901.81;3615199;39;20050;-65
2022/11/27 07:13:53;;;;;;;9.52;3.45;;;;;;;7.36;74.66;101893.91;3614321;39;20063;-66
2022/11/27 07:16:18;;;;;;;5.75;3.78;;;;;;;7.36;76.02;101877.88;3616819;39;20332;-66
2022/11/27 07:18:51;;;;;;;11.70;3.60;;;;;;;7.31;75.49;101871.78;3617822;39;20058;-66
2022/11/27 07:21:17;;;;;;;10.07;3.85;;;;;;;7.33;76.11;101872.63;3612991;39;20066;-66
2022/11/27 07:23:44;;;;;;;9.70;3.78;;;;;;;7.34;76.33;101869.00;3615470;39;20055;-66
2022/11/27 07:26:17;;;;;;;12.82;3.92;;;;;;;7.25;76.70;101850.56;3614087;39;20126;-66
2022/11/27 07:28:44;;;;;;;7.47;3.65;;;;;;;7.30;77.07;101870.03;3615866;39;20049;-66
2022/11/27 07:31:23;;;;;;;8.75;4.03;;;;;;;7.28;76.66;101866.53;3615375;39;20047;-66
2022/11/27 07:33:51;;;;;;;9.10;3.85;;;;;;;7.29;77.20;101860.25;3616687;39;20054;-66
2022/11/27 07:36:29;;;;;;;8.50;3.72;;;;;;;7.28;76.87;101858.50;3616701;39;20063;-66
2022/11/27 07:38:56;;;;;;;6.30;3.40;;;;;;;7.20;77.54;101837.34;3615906;39;20087;-66
2022/11/27 07:41:22;;;;;;;8.10;3.90;;;;;;;7.29;77.61;101863.78;3616223;39;20043;-67
2022/11/27 07:43:48;;;;;;;10.40;4.03;;;;;;;7.14;78.02;101835.75;3615084;39;20050;-66
2022/11/27 07:46:21;;;;;;;10.77;4.30;;;;;;;7.27;77.71;101846.06;3618520;39;20046;-66
2022/11/27 07:48:48;;;;;;;7.72;3.60;;;;;;;7.24;77.19;101852.38;3613879;39;20062;-66
2022/11/27 07:51:17;;;;;;;10.98;3.67;;;;;;;7.27;78.06;101844.25;3613143;39;20099;-66
2022/11/27 07:53:43;;;;;;;11.90;4.30;;;;;;;7.29;77.66;101833.50;3615491;39;20055;-65
2022/11/27 07:56:13;;;;;;;8.68;4.43;;;;;;;7.28;77.56;101829.06;3615363;39;20063;-65
2022/11/27 07:58:39;;;;;;;8.32;3.75;;;;;;;7.24;78.15;101812.25;3617306;39;20312;-66
2022/11/27 08:01:09;;;;;;;11.70;4.93;;;;;;;7.31;77.85;101813.81;3613707;39;20496;-65
2022/11/27 08:03:34;;;;;;;10.57;4.32;;;;;;;7.32;78.44;101812.00;3615374;39;20334;-65
2022/11/27 08:06:00;;;;;;;8.93;4.20;;;;;;;7.17;77.98;101792.00;3618085;39;20397;-65
2022/11/27 08:08:26;;;;;;;14.20;5.20;;;;;;;7.31;77.86;101807.59;3617758;39;20102;-65
2022/11/27 08:10:51;;;;;;;8.70;4.30;;;;;;;7.32;77.97;101810.19;3614825;39;20386;-65
2022/11/27 08:13:17;;;;;;;14.13;5.45;;;;;;;7.35;78.35;101811.91;3615089;39;20309;-65
2022/11/27 08:15:44;;;;;;;9.70;4.80;;;;;;;7.36;78.18;101802.97;3616516;39;20043;-65
2022/11/27 08:18:11;;;;;;;14.15;5.55;;;;;;;7.26;77.79;101782.78;3616803;39;20051;-65
2022/11/27 08:20:37;;;;;;;8.88;4.88;;;;;;;7.42;77.67;101813.44;3617511;39;20062;-64
2022/11/27 08:23:03;;;;;;;10.00;4.88;;;;;;;7.43;77.97;101809.88;3617788;39;20061;-64
2022/11/27 08:25:30;;;;;;;10.38;4.80;;;;;;;7.45;78.16;101808.00;3617062;39;20395;-65
2022/11/27 08:27:55;;;;;;;13.38;6.13;;;;;;;7.48;77.40;101799.88;3613849;39;20059;-65
2022/11/27 08:30:22;;;;;;;9.73;5.10;;;;;;;7.37;77.67;101781.50;3613636;39;20051;-66
2022/11/27 08:32:48;;;;;;;6.18;4.47;;;;;;;7.53;77.43;101807.75;3616964;39;20063;-66
2022/11/27 08:35:14;;;;;;;10.65;5.38;;;;;;;7.56;77.23;101804.97;3618075;39;20119;-65
2022/11/27 08:37:39;;;;;;;9.63;4.85;;;;;;;7.54;77.87;101805.00;3615747;39;20055;-65
2022/11/27 08:40:06;;;;;;;15.20;5.78;;;;;;;7.60;78.18;101807.47;3615661;39;20047;-65
2022/11/27 08:42:32;;;;;;;7.72;5.32;;;;;;;7.62;77.67;101805.66;3616731;39;20075;-66
2022/11/27 08:44:57;;;;;;;8.40;5.00;;;;;;;7.67;78.06;101809.06;3614348;39;20061;-65
2022/11/27 08:47:23;;;;;;;13.52;5.43;;;;;;;7.67;77.80;101811.72;3614675;39;20053;-65
2022/11/27 08:49:49;;;;;;;8.80;5.28;;;;;;;7.72;77.68;101806.19;3612440;39;20042;-64
2022/11/27 08:52:14;;;;;;;9.48;5.38;;;;;;;7.75;78.27;101813.25;3614259;39;20054;-65
2022/11/27 08:54:40;;;;;;;10.13;5.60;;;;;;;7.74;78.26;101809.72;3617139;39;20051;-65
2022/11/27 08:57:06;;;;;;;13.52;6.22;;;;;;;7.79;78.10;101812.22;3613696;39;20050;-65
2022/11/27 08:59:31;;;;;;;11.68;5.20;;;;;;;7.79;78.37;101815.75;3615976;39;20074;-65
2022/11/27 09:01:57;;;;;;;12.80;5.60;;;;;;;7.81;78.33;101816.59;3618948;39;20060;-64
2022/11/27 09:04:22;;;;;;;10.48;5.93;;;;;;;7.84;78.56;101816.50;3617608;39;20050;-65
2022/11/27 09:06:48;;;;;;;9.15;5.75;;;;;;;7.83;78.17;101816.53;3619216;39;20282;-65
2022/11/27 09:09:14;;;;;;;8.70;5.78;;;;;;;7.87;77.95;101818.19;3615356;39;20057;-65
2022/11/27 09:11:40;;;;;;;10.73;5.90;;;;;;;7.91;78.07;101812.66;3606436;39;20089;-65
2022/11/27 09:14:07;;;;;;;9.07;5.65;;;;;;;7.92;78.09;101802.81;3614875;39;20309;-65
2022/11/27 09:16:34;;;;;;;10.32;6.07;;;;;;;7.95;77.92;101813.44;3616658;39;20088;-64
2022/11/27 09:19:00;;;;;;;12.95;6.32;;;;;;;7.98;78.32;101802.63;3614433;39;20083;-66
2022/11/27 09:21:29;;;;;;;11.90;5.93;;;;;;;8.00;77.63;101800.78;3615472;39;20515;-65
2022/11/27 09:23:58;;;;;;;10.73;5.95;;;;;;;8.01;78.10;101815.91;3616493;39;20054;-65
2022/11/27 09:26:26;;;;;;;11.85;6.00;;;;;;;7.99;78.11;101793.69;3618611;39;20043;-64
2022/11/27 09:28:54;;;;;;;12.82;6.85;;;;;;;7.99;78.10;101785.63;3614864;39;20065;-65
2022/11/27 09:31:21;;;;;;;9.65;6.47;;;;;;;8.08;78.10;101797.81;3614427;39;20312;-65
2022/11/27 09:33:48;;;;;;;12.88;6.50;;;;;;;7.97;78.48;101776.78;3617684;39;20046;-65
2022/11/27 09:36:24;;;;;;;9.32;6.22;;;;;;;8.12;78.61;101805.69;3615609;39;20061;-65
2022/11/27 09:38:50;;;;;;;10.88;6.88;;;;;;;8.18;78.10;101803.69;3614617;39;20055;-64
2022/11/27 09:41:50;;;;;;;15.70;6.90;;;;;;;8.12;78.80;101784.25;3616941;39;20053;-65
2022/11/27 09:44:53;;;;;;;12.52;6.75;;;;;;;8.20;77.87;101800.03;3613034;39;20084;-64
2022/11/27 09:47:35;;;;;;;12.43;6.47;;;;;;;8.21;78.76;101799.09;3614424;39;20336;-64
2022/11/27 09:50:12;;;;;;;11.13;6.43;;;;;;;8.21;77.94;101799.09;3616509;39;20385;-64
2022/11/27 09:52:48;;;;;;;13.32;6.75;;;;;;;8.20;78.86;101785.78;3614705;39;20047;-64
2022/11/27 09:55:35;;;;;;;12.40;6.93;;;;;;;8.21;78.91;101782.16;3614944;39;20054;-64
2022/11/27 09:58:14;;;;;;;13.15;7.22;;;;;;;8.22;78.87;101789.28;3617087;39;20059;-65
2022/11/27 10:00:39;;;;;;;11.15;7.55;;;;;;;8.21;78.42;101783.03;3617162;39;20090;-64
2022/11/27 10:03:24;;;;;;;13.93;8.63;;;;;;;8.21;78.91;101776.81;3615065;39;20116;-64
2022/11/27 10:06:22;;;;;;;14.25;8.23;;;;;;;8.23;79.33;101775.81;3612896;39;20047;-64
2022/11/27 10:09:35;;;;;;;11.02;7.25;;;;;;;8.25;79.05;101767.75;3604477;39;20136;-64
2022/11/27 10:12:54;;;;;;;8.95;6.55;;;;;;;8.26;78.59;101759.66;3614450;39;20055;-64
2022/11/27 10:15:51;;;;;;;11.50;6.53;;;;;;;8.27;78.86;101753.34;3604848;39;20187;-64
2022/11/27 10:18:38;;;;;;;11.88;6.63;;;;;;;8.30;78.98;101760.41;3614704;39;20055;-64
2022/11/27 10:21:30;;;;;;;11.52;6.75;;;;;;;8.29;79.42;101745.25;3614819;39;20053;-64
2022/11/27 10:24:12;;;;;;;9.48;6.35;;;;;;;8.27;79.39;101734.59;3611071;39;20053;-64
2022/11/27 10:26:46;;;;;;;8.95;5.82;;;;;;;8.33;78.48;101728.13;3616266;39;20571;-64
2022/11/27 10:29:40;;;;;;;10.27;5.97;;;;;;;8.12;78.99;101703.06;3617548;39;20055;-64
2022/11/27 10:32:32;;;;;;;10.02;6.65;;;;;;;8.36;79.20;101733.38;3614300;39;20146;-64
2022/11/27 10:35:12;;;;;;;10.75;6.72;;;;;;;8.42;78.92;101733.19;3618324;39;20089;-65
2022/11/27 10:37:55;;;;;;;14.48;7.03;;;;;;;8.36;79.31;101704.78;3612873;39;20055;-64
2022/11/27 10:40:37;;;;;;;11.20;6.70;;;;;;;8.44;78.31;101719.75;3615199;39;20054;-65
2022/11/27 10:43:20;;;;;;;10.40;6.53;;;;;;;8.44;78.79;101715.25;3617358;39;20354;-65
2022/11/27 10:45:53;;;;;;;9.43;6.32;;;;;;;8.49;79.09;101713.25;3613747;39;20059;-64
2022/11/27 10:48:20;;;;;;;11.65;7.10;;;;;;;8.49;78.66;101705.22;3615839;39;20057;-64
2022/11/27 10:50:46;;;;;;;10.68;6.55;;;;;;;8.51;78.94;101707.84;3615709;39;20046;-64
2022/11/27 10:53:35;;;;;;;10.13;7.28;;;;;;;8.54;78.95;101708.59;3617794;39;20337;-64
2022/11/27 10:56:13;;;;;;;12.93;6.80;;;;;;;8.58;78.73;101707.53;3615126;39;20043;-64
2022/11/27 10:58:57;;;;;;;10.35;6.53;;;;;;;8.59;77.92;101698.59;3617462;39;20054;-64
2022/11/27 11:01:28;;;;;;;11.20;6.93;;;;;;;8.65;78.41;101699.25;3618084;39;20054;-64
2022/11/27 11:04:08;;;;;;;10.23;6.50;;;;;;;8.29;78.23;101627.41;3614280;39;20326;-64
2022/11/27 11:06:53;;;;;;;10.43;6.53;;;;;;;8.64;77.42;101681.44;3617440;39;20421;-64
2022/11/27 11:09:33;;;;;;;13.40;8.43;;;;;;;8.67;77.37;101689.34;3614314;39;20285;-64
2022/11/27 11:12:19;;;;;;;11.32;7.57;;;;;;;8.69;78.12;101677.63;3617533;39;20055;-64
2022/11/27 11:14:54;;;;;;;11.27;6.60;;;;;;;8.71;77.68;101672.19;3615683;39;20055;-64
2022/11/27 11:17:33;;;;;;;9.02;6.32;;;;;;;8.73;76.54;101667.66;3616502;39;20392;-64
2022/11/27 11:20:00;;;;;;;11.35;6.90;;;;;;;8.73;76.92;101657.81;3615468;39;20066;-64
2022/11/27 11:22:28;;;;;;;11.20;6.70;;;;;;;8.70;77.19;101654.38;3617097;39;20046;-64
2022/11/27 11:24:54;;;;;;;10.75;6.15;;;;;;;8.76;76.81;101654.13;3615687;39;20376;-64
2022/11/27 11:27:28;;;;;;;9.48;6.70;;;;;;;8.74;77.57;101645.28;3610351;39;20058;-65
2022/11/27 11:30:04;;;;;;;9.45;6.07;;;;;;;8.77;77.17;101642.47;3616574;39;20082;-64
2022/11/27 11:32:39;;;;;;;10.13;6.75;;;;;;;8.76;76.71;101644.28;3613117;39;20069;-64
2022/11/27 11:35:35;;;;;;;9.88;6.18;;;;;;;8.76;76.68;101635.38;3614566;39;20356;-64
2022/11/27 11:38:06;;;;;;;16.05;7.10;;;;;;;8.78;76.64;101628.13;3618222;39;20051;-64
2022/11/27 11:40:36;;;;;;;11.27;6.80;;;;;;;8.76;76.30;101612.13;3617003;39;20066;-64
2022/11/27 11:43:25;;;;;;;9.27;6.72;;;;;;;8.79;76.46;101621.84;3613956;39;20062;-64
2022/11/27 11:45:50;;;;;;;12.55;6.55;;;;;;;8.79;77.81;101620.03;3614425;39;20059;-64
2022/11/27 11:48:24;;;;;;;10.40;6.22;;;;;;;8.83;78.39;101615.41;3614976;39;20087;-64
2022/11/27 11:51:23;;;;;;;9.30;6.57;;;;;;;8.83;77.96;101604.69;3614771;39;20051;-65
2022/11/27 11:54:17;;;;;;;11.07;6.95;;;;;;;8.87;78.25;101600.94;3615926;39;20195;-65